createdAt,value
2019-02-27T00:00:22.657Z,10.72
2019-02-27T00:02:51.095Z,9.98
2019-02-27T00:05:19.407Z,10.25
2019-02-27T00:07:47.731Z,6.70
2019-02-27T00:10:16.240Z,7.87
2019-02-27T00:12:44.573Z,8.90
2019-02-27T00:15:13.058Z,6.62
2019-02-27T00:17:41.390Z,8.55
2019-02-27T00:20:09.708Z,9.80
2019-02-27T00:22:38.393Z,6.97
2019-02-27T00:25:07.133Z,9.45
2019-02-27T00:27:35.469Z,11.70
2019-02-27T00:30:05.756Z,11.18
2019-02-27T00:32:34.120Z,11.93
2019-02-27T00:35:06.434Z,12.78
2019-02-27T00:37:32.540Z,9.15
2019-02-27T00:40:05.359Z,11.35
2019-02-27T00:42:33.823Z,9.05
2019-02-27T00:45:01.679Z,9.88
2019-02-27T00:47:30.346Z,11.08
2019-02-27T00:49:58.685Z,12.37
2019-02-27T00:52:26.989Z,9.00
2019-02-27T00:54:55.571Z,7.12
2019-02-27T00:57:23.897Z,8.88
2019-02-27T00:59:52.274Z,8.48
2019-02-27T01:02:20.866Z,7.22
2019-02-27T01:04:51.944Z,9.50
2019-02-27T01:07:21.324Z,10.88
2019-02-27T01:09:50.045Z,10.38
2019-02-27T01:12:18.385Z,8.63
2019-02-27T01:14:46.977Z,9.18
2019-02-27T01:17:15.572Z,8.18
2019-02-27T01:19:44.252Z,11.33
2019-02-27T01:22:12.788Z,10.23
2019-02-27T01:24:41.102Z,6.60
2019-02-27T01:27:09.412Z,9.58
2019-02-27T01:29:37.737Z,7.62
2019-02-27T01:32:06.511Z,8.33
2019-02-27T01:34:34.954Z,6.53
2019-02-27T01:37:03.316Z,7.50
2019-02-27T01:39:31.644Z,8.08
2019-02-27T01:42:00.028Z,4.47
2019-02-27T01:44:28.385Z,9.40
2019-02-27T01:47:01.831Z,8.13
2019-02-27T01:49:26.992Z,6.03
2019-02-27T01:51:55.868Z,9.18
2019-02-27T01:54:24.205Z,5.95
2019-02-27T01:56:52.791Z,7.95
2019-02-27T01:59:21.554Z,6.53
2019-02-27T02:01:49.926Z,11.03
2019-02-27T02:04:20.260Z,15.50
2019-02-27T02:06:48.372Z,7.08
2019-02-27T02:09:33.937Z,8.70
2019-02-27T02:12:14.797Z,6.78
2019-02-27T02:14:54.369Z,10.70
2019-02-27T02:17:59.502Z,6.62
2019-02-27T02:20:47.685Z,6.10
2019-02-27T02:23:30.627Z,7.70
2019-02-27T02:26:24.905Z,6.80
2019-02-27T02:29:17.878Z,7.33
2019-02-27T02:31:49.418Z,5.53
2019-02-27T02:34:43.590Z,5.87
2019-02-27T02:37:20.758Z,8.98
2019-02-27T02:40:22.709Z,8.55
2019-02-27T02:43:21.462Z,9.03
2019-02-27T02:46:07.990Z,6.62
2019-02-27T02:48:44.555Z,6.55
2019-02-27T02:51:19.149Z,7.03
2019-02-27T02:54:24.683Z,8.23
2019-02-27T02:57:00.178Z,5.97
2019-02-27T03:00:00.121Z,6.72
2019-02-27T03:02:57.674Z,5.83
2019-02-27T03:05:43.589Z,12.05
2019-02-27T03:08:27.378Z,6.83
2019-02-27T03:11:19.091Z,8.45
2019-02-27T03:14:18.629Z,7.05
2019-02-27T03:16:50.377Z,7.70
2019-02-27T03:19:41.782Z,8.45
2019-02-27T03:22:16.659Z,10.05
2019-02-27T03:25:08.174Z,8.98
2019-02-27T03:27:51.837Z,5.60
2019-02-27T03:30:33.745Z,6.00
2019-02-27T03:32:56.782Z,8.40
2019-02-27T03:35:42.755Z,8.90
2019-02-27T03:38:29.315Z,8.40
2019-02-27T03:41:22.470Z,7.83
2019-02-27T03:44:01.271Z,7.20
2019-02-27T03:46:42.009Z,8.03
2019-02-27T03:49:25.846Z,7.45
2019-02-27T03:52:03.103Z,8.55
2019-02-27T03:54:48.534Z,9.95
2019-02-27T03:57:23.053Z,6.53
2019-02-27T04:00:00.598Z,8.08
2019-02-27T04:03:00.956Z,7.72
2019-02-27T04:05:50.764Z,11.78
2019-02-27T04:08:34.567Z,9.18
2019-02-27T04:11:06.056Z,8.50
2019-02-27T04:13:33.166Z,14.70
2019-02-27T04:16:01.681Z,10.48
2019-02-27T04:18:29.096Z,9.38
2019-02-27T04:20:57.439Z,6.08
2019-02-27T04:23:26.017Z,12.37
2019-02-27T04:25:54.400Z,10.03
2019-02-27T04:28:22.726Z,6.33
2019-02-27T04:30:51.985Z,8.00
2019-02-27T04:33:23.172Z,9.63
2019-02-27T04:35:50.866Z,14.83
2019-02-27T04:38:19.628Z,10.50
2019-02-27T04:40:47.961Z,9.55
2019-02-27T04:43:16.286Z,6.80
2019-02-27T04:45:46.747Z,8.45
2019-02-27T04:48:14.845Z,11.90
2019-02-27T04:50:44.143Z,8.50
2019-02-27T04:53:13.366Z,9.65
2019-02-27T04:55:42.132Z,6.72
2019-02-27T04:58:10.440Z,10.53
2019-02-27T05:00:39.021Z,13.58
2019-02-27T05:03:07.369Z,13.62
2019-02-27T05:05:36.172Z,7.62
2019-02-27T05:08:04.985Z,11.12
2019-02-27T05:10:33.916Z,14.28
2019-02-27T05:13:02.575Z,12.28
2019-02-27T05:15:31.224Z,16.15
2019-02-27T05:17:59.551Z,13.28
2019-02-27T05:20:28.044Z,10.88
2019-02-27T05:23:00.078Z,8.08
2019-02-27T05:25:26.510Z,11.30
2019-02-27T05:27:55.077Z,13.20
2019-02-27T05:30:23.501Z,17.32
2019-02-27T05:32:52.085Z,15.63
2019-02-27T05:35:23.587Z,21.12
2019-02-27T05:37:50.620Z,31.00
2019-02-27T05:40:19.008Z,12.63
2019-02-27T05:42:47.325Z,16.80
2019-02-27T05:45:16.105Z,8.35
2019-02-27T05:47:45.877Z,18.12
2019-02-27T05:50:14.409Z,13.95
2019-02-27T05:52:42.981Z,14.18
2019-02-27T05:55:11.468Z,15.68
2019-02-27T05:57:40.060Z,16.87
2019-02-27T06:00:13.884Z,21.12
2019-02-27T06:02:44.886Z,12.50
2019-02-27T06:05:12.658Z,11.43
2019-02-27T06:07:40.987Z,10.68
2019-02-27T06:10:19.761Z,11.57
2019-02-27T06:12:47.893Z,14.63
2019-02-27T06:15:17.646Z,9.03
2019-02-27T06:17:48.846Z,13.78
2019-02-27T06:20:16.453Z,15.03
2019-02-27T06:22:45.000Z,11.63
2019-02-27T06:25:21.638Z,23.10
2019-02-27T06:30:17.831Z,19.15
2019-02-27T06:32:46.137Z,24.85
2019-02-27T06:35:15.071Z,12.00
2019-02-27T06:37:43.380Z,24.65
2019-02-27T06:40:18.612Z,17.05
2019-02-27T06:42:46.929Z,20.08
2019-02-27T06:45:16.509Z,17.80
2019-02-27T06:47:45.117Z,17.62
2019-02-27T06:50:15.073Z,47.08
2019-02-27T06:52:43.419Z,44.00
2019-02-27T06:55:13.441Z,41.33
2019-02-27T06:57:41.910Z,29.35
2019-02-27T07:00:23.790Z,19.40
2019-02-27T07:02:55.158Z,9.80
2019-02-27T07:05:22.531Z,10.80
2019-02-27T07:07:50.924Z,11.12
2019-02-27T07:10:19.849Z,13.70
2019-02-27T07:12:49.231Z,20.00
2019-02-27T07:15:19.812Z,11.00
2019-02-27T07:17:48.496Z,15.25
2019-02-27T07:20:17.100Z,23.83
2019-02-27T07:22:46.768Z,10.03
2019-02-27T07:25:18.871Z,15.30
2019-02-27T07:28:13.162Z,16.45
2019-02-27T07:30:42.628Z,9.70
2019-02-27T07:33:11.833Z,17.10
2019-02-27T07:35:40.580Z,8.20
2019-02-27T07:38:08.915Z,29.02
2019-02-27T07:40:37.335Z,17.67
2019-02-27T07:43:06.439Z,13.53
2019-02-27T07:45:35.144Z,11.83
2019-02-27T07:48:03.752Z,11.57
2019-02-27T07:50:32.660Z,7.20
2019-02-27T07:53:01.444Z,10.60
2019-02-27T07:55:29.926Z,10.58
2019-02-27T07:57:59.219Z,14.53
2019-02-27T08:00:27.800Z,13.50
2019-02-27T08:02:56.490Z,10.65
2019-02-27T08:05:28.276Z,14.28
2019-02-27T08:07:54.958Z,15.90
2019-02-27T08:10:24.610Z,19.62
2019-02-27T08:12:55.504Z,8.50
2019-02-27T08:15:23.115Z,13.22
2019-02-27T08:17:51.571Z,9.38
2019-02-27T08:20:21.222Z,11.12
2019-02-27T08:22:49.876Z,9.08
2019-02-27T08:25:18.661Z,7.58
2019-02-27T08:27:47.035Z,14.65
2019-02-27T08:30:18.238Z,10.78
2019-02-27T08:32:46.641Z,10.63
2019-02-27T08:35:16.604Z,13.13
2019-02-27T08:37:45.307Z,14.73
2019-02-27T08:40:14.467Z,19.17
2019-02-27T08:42:42.799Z,11.73
2019-02-27T08:45:19.881Z,11.15
2019-02-27T08:47:44.363Z,7.65
2019-02-27T08:50:14.922Z,11.65
2019-02-27T08:52:44.525Z,12.98
2019-02-27T08:55:19.093Z,11.83
2019-02-27T08:57:44.845Z,14.73
2019-02-27T09:00:23.303Z,13.03
2019-02-27T09:02:52.556Z,14.68
2019-02-27T09:05:21.216Z,12.95
2019-02-27T09:07:49.729Z,13.95
2019-02-27T09:10:23.301Z,11.50
2019-02-27T09:12:52.799Z,13.62
2019-02-27T09:15:21.413Z,13.88
2019-02-27T09:17:49.874Z,10.85
2019-02-27T09:20:20.437Z,14.35
2019-02-27T09:22:49.592Z,14.20
2019-02-27T09:25:18.186Z,14.20
2019-02-27T09:27:47.198Z,14.63
2019-02-27T09:30:28.777Z,22.55
2019-02-27T09:32:54.072Z,13.88
2019-02-27T09:35:22.561Z,15.72
2019-02-27T09:37:51.998Z,14.58
2019-02-27T09:40:29.602Z,14.28
2019-02-27T09:42:58.680Z,19.85
2019-02-27T09:45:29.578Z,17.80
2019-02-27T09:47:59.955Z,19.35
2019-02-27T09:50:32.812Z,16.73
2019-02-27T09:53:03.708Z,18.55
2019-02-27T09:55:31.349Z,15.72
2019-02-27T09:57:59.757Z,16.15
2019-02-27T10:00:35.389Z,15.93
2019-02-27T10:03:03.707Z,22.82
2019-02-27T10:05:36.336Z,22.17
2019-02-27T10:08:02.712Z,27.07
2019-02-27T10:10:31.388Z,21.87
2019-02-27T10:12:59.993Z,18.12
2019-02-27T10:15:28.402Z,14.35
2019-02-27T10:17:56.911Z,13.85
2019-02-27T10:20:25.215Z,15.03
2019-02-27T10:22:54.379Z,21.55
2019-02-27T10:25:22.938Z,27.45
2019-02-27T10:27:51.545Z,18.67
2019-02-27T10:30:20.302Z,19.27
2019-02-27T10:32:48.798Z,53.65
2019-02-27T10:35:17.377Z,18.62
2019-02-27T10:37:50.360Z,17.45
2019-02-27T10:40:17.996Z,15.68
2019-02-27T10:42:46.318Z,21.20
2019-02-27T10:45:15.102Z,17.00
2019-02-27T10:47:43.675Z,19.12
2019-02-27T10:50:13.155Z,15.98
2019-02-27T10:52:41.811Z,14.43
2019-02-27T10:55:14.231Z,14.87
2019-02-27T10:57:42.797Z,16.27
2019-02-27T11:00:32.214Z,19.00
2019-02-27T11:03:01.292Z,16.80
2019-02-27T11:05:32.314Z,15.70
2019-02-27T11:08:01.100Z,16.07
2019-02-27T11:10:31.521Z,14.00
2019-02-27T11:13:05.690Z,16.80
2019-02-27T11:15:30.771Z,17.50
2019-02-27T11:18:04.137Z,14.60
2019-02-27T11:20:29.665Z,12.23
2019-02-27T11:22:58.479Z,13.85
2019-02-27T11:25:31.197Z,13.08
2019-02-27T11:28:18.962Z,12.93
2019-02-27T11:30:47.613Z,12.00
2019-02-27T11:33:25.727Z,11.33
2019-02-27T11:35:46.724Z,9.25
2019-02-27T11:38:15.123Z,18.12
2019-02-27T11:40:43.630Z,17.48
2019-02-27T11:43:12.013Z,15.98
2019-02-27T11:45:40.353Z,14.53
2019-02-27T11:48:08.750Z,14.87
2019-02-27T11:50:37.160Z,19.57
2019-02-27T11:53:05.535Z,16.02
2019-02-27T11:55:34.124Z,18.05
2019-02-27T11:58:05.381Z,15.93
2019-02-27T12:00:34.399Z,18.45
2019-02-27T12:03:02.808Z,13.18
2019-02-27T12:05:34.094Z,13.25
2019-02-27T12:08:01.370Z,20.90
2019-02-27T12:10:31.001Z,12.70
2019-02-27T12:13:00.820Z,17.00
2019-02-27T12:15:29.803Z,16.48
2019-02-27T12:18:00.494Z,18.20
2019-02-27T12:20:28.272Z,17.67
2019-02-27T12:22:56.801Z,15.50
2019-02-27T12:25:29.126Z,15.63
2019-02-27T12:27:58.235Z,15.45
2019-02-27T12:30:28.257Z,17.23
2019-02-27T12:32:57.188Z,13.20
2019-02-27T12:35:27.694Z,25.15
2019-02-27T12:37:56.458Z,20.65
2019-02-27T12:40:25.216Z,16.65
2019-02-27T12:42:53.723Z,16.82
2019-02-27T12:45:25.848Z,17.67
2019-02-27T12:47:54.448Z,14.38
2019-02-27T12:50:26.838Z,22.15
2019-02-27T12:52:54.141Z,18.75
2019-02-27T12:55:22.605Z,9.78
2019-02-27T12:57:52.488Z,13.13
2019-02-27T13:00:24.290Z,16.50
2019-02-27T13:02:52.845Z,11.83
2019-02-27T13:05:21.313Z,13.32
2019-02-27T13:07:49.668Z,9.75
2019-02-27T13:10:20.513Z,16.27
2019-02-27T13:12:49.274Z,13.53
2019-02-27T13:15:21.580Z,17.82
2019-02-27T13:17:49.920Z,25.97
2019-02-27T13:20:20.282Z,13.43
2019-02-27T13:22:48.801Z,16.10
2019-02-27T13:25:17.354Z,10.35
2019-02-27T13:27:45.856Z,11.10
2019-02-27T13:30:16.545Z,12.98
2019-02-27T13:32:44.970Z,9.00
2019-02-27T13:35:13.367Z,15.72
2019-02-27T13:37:44.555Z,16.23
2019-02-27T13:40:17.240Z,16.32
2019-02-27T13:42:45.558Z,25.48
2019-02-27T13:45:22.083Z,24.45
2019-02-27T13:47:50.450Z,37.15
2019-02-27T13:50:22.399Z,28.20
2019-02-27T13:52:50.710Z,56.65
2019-02-27T13:55:21.407Z,21.07
2019-02-27T13:57:49.987Z,11.60
2019-02-27T14:00:26.712Z,11.50
2019-02-27T14:02:55.354Z,12.40
2019-02-27T14:05:23.704Z,14.47
2019-02-27T14:07:57.107Z,14.45
2019-02-27T14:10:25.549Z,14.68
2019-02-27T14:12:54.058Z,8.40
2019-02-27T14:15:26.902Z,10.65
2019-02-27T14:17:52.962Z,13.72
2019-02-27T14:20:22.420Z,12.78
2019-02-27T14:22:50.934Z,11.90
2019-02-27T14:25:32.925Z,13.05
2019-02-27T14:28:00.073Z,27.13
2019-02-27T14:30:37.405Z,14.83
2019-02-27T14:33:06.198Z,11.57
2019-02-27T14:35:36.375Z,15.98
2019-02-27T14:38:04.789Z,16.55
2019-02-27T14:40:37.619Z,12.65
2019-02-27T14:43:03.674Z,10.88
2019-02-27T14:45:32.014Z,14.47
2019-02-27T14:48:00.777Z,12.45
2019-02-27T14:50:33.565Z,16.40
2019-02-27T14:52:59.616Z,14.53
2019-02-27T14:55:28.026Z,9.25
2019-02-27T14:57:56.355Z,13.20
2019-02-27T15:00:30.597Z,9.80
2019-02-27T15:05:26.532Z,15.35
2019-02-27T15:07:55.035Z,11.68
2019-02-27T15:10:23.885Z,16.35
2019-02-27T15:12:55.185Z,12.95
2019-02-27T15:15:30.673Z,12.98
2019-02-27T15:17:58.995Z,9.48
2019-02-27T15:20:28.618Z,15.83
2019-02-27T15:22:57.138Z,10.55
2019-02-27T15:25:27.475Z,10.48
2019-02-27T15:27:58.282Z,12.65
2019-02-27T15:30:27.862Z,9.43
2019-02-27T15:32:56.182Z,13.93
2019-02-27T15:35:24.716Z,12.65
2019-02-27T15:37:53.246Z,15.32
2019-02-27T15:40:28.630Z,14.20
2019-02-27T15:42:53.489Z,8.30
2019-02-27T15:45:26.039Z,11.75
2019-02-27T15:47:54.570Z,11.30
2019-02-27T15:50:36.036Z,14.80
2019-02-27T15:53:04.523Z,20.02
2019-02-27T15:55:34.946Z,14.35
2019-02-27T15:58:03.309Z,11.55
2019-02-27T16:00:31.669Z,13.55
2019-02-27T16:03:00.027Z,14.93
2019-02-27T16:05:31.417Z,11.53
2019-02-27T16:07:58.735Z,12.13
2019-02-27T16:10:28.106Z,17.12
2019-02-27T16:12:59.673Z,13.50
2019-02-27T16:15:26.867Z,13.20
2019-02-27T16:17:55.413Z,13.80
2019-02-27T16:20:26.071Z,16.20
2019-02-27T16:22:54.947Z,18.07
2019-02-27T16:25:25.584Z,17.67
2019-02-27T16:27:53.940Z,14.55
2019-02-27T16:30:31.275Z,14.33
2019-02-27T16:32:57.292Z,21.20
2019-02-27T16:35:26.333Z,16.15
2019-02-27T16:37:57.666Z,20.52
2019-02-27T16:40:27.299Z,28.98
2019-02-27T16:42:55.770Z,22.55
2019-02-27T16:45:33.893Z,27.10
2019-02-27T16:48:00.321Z,21.10
2019-02-27T16:50:30.549Z,22.42
2019-02-27T16:52:59.170Z,17.57
2019-02-27T16:55:28.281Z,25.12
2019-02-27T16:57:57.816Z,30.57
2019-02-27T17:00:31.711Z,21.87
2019-02-27T17:03:00.392Z,22.22
2019-02-27T17:05:29.081Z,28.65
2019-02-27T17:08:02.096Z,29.60
2019-02-27T17:10:32.822Z,40.05
2019-02-27T17:13:01.539Z,30.40
2019-02-27T17:15:34.691Z,32.60
2019-02-27T17:18:00.440Z,39.33
2019-02-27T17:20:29.214Z,34.65
2019-02-27T17:22:57.671Z,57.48
2019-02-27T17:25:28.586Z,51.75
2019-02-27T17:27:56.150Z,67.95
2019-02-27T17:30:29.427Z,61.65
2019-02-27T17:32:57.756Z,47.25
2019-02-27T17:35:26.336Z,30.70
2019-02-27T17:37:54.816Z,38.17
2019-02-27T17:40:23.160Z,49.00
2019-02-27T17:42:53.612Z,49.80
2019-02-27T17:45:24.167Z,36.80
2019-02-27T17:47:52.989Z,52.03
2019-02-27T17:50:21.403Z,49.25
2019-02-27T17:52:49.924Z,43.85
2019-02-27T17:55:19.048Z,48.98
2019-02-27T17:57:47.449Z,41.75
2019-02-27T18:00:31.396Z,36.85
2019-02-27T18:03:00.014Z,38.40
2019-02-27T18:05:28.789Z,44.05
2019-02-27T18:07:57.390Z,38.15
2019-02-27T18:10:25.810Z,39.95
2019-02-27T18:12:54.599Z,32.35
2019-02-27T18:15:24.423Z,28.00
2019-02-27T18:17:53.029Z,24.90
2019-02-27T18:20:24.916Z,28.57
2019-02-27T18:22:51.889Z,32.33
2019-02-27T18:25:20.426Z,28.98
2019-02-27T18:27:48.807Z,36.03
2019-02-27T18:30:23.506Z,30.32
2019-02-27T18:32:52.159Z,30.68
2019-02-27T18:35:20.597Z,31.97
2019-02-27T18:37:53.089Z,42.93
2019-02-27T18:40:19.805Z,25.85
2019-02-27T18:42:48.409Z,34.15
2019-02-27T18:45:22.351Z,41.40
2019-02-27T18:47:50.842Z,46.75
2019-02-27T18:50:19.611Z,27.50
2019-02-27T18:52:48.313Z,37.53
2019-02-27T18:55:16.813Z,36.30
2019-02-27T18:57:47.244Z,38.98
2019-02-27T19:00:24.479Z,42.43
2019-02-27T19:03:04.178Z,45.78
2019-02-27T19:05:32.503Z,36.20
2019-02-27T19:08:00.861Z,35.68
2019-02-27T19:10:29.258Z,34.27
2019-02-27T19:12:59.968Z,43.42
2019-02-27T19:15:28.049Z,31.52
2019-02-27T19:17:56.406Z,38.92
2019-02-27T19:20:27.861Z,45.35
2019-02-27T19:22:56.257Z,35.80
2019-02-27T19:25:25.023Z,46.50
2019-02-27T19:27:53.421Z,40.25
2019-02-27T19:30:22.259Z,39.53
2019-02-27T19:32:50.883Z,32.35
2019-02-27T19:35:21.874Z,36.42
2019-02-27T19:37:49.690Z,27.07
2019-02-27T19:40:19.600Z,35.52
2019-02-27T19:42:56.785Z,30.10
2019-02-27T19:45:25.622Z,28.27
2019-02-27T19:47:55.775Z,29.20
2019-02-27T19:50:24.505Z,28.05
2019-02-27T19:52:53.171Z,21.10
2019-02-27T19:55:26.453Z,27.15
2019-02-27T19:57:52.050Z,20.12
2019-02-27T20:00:25.903Z,29.12
2019-02-27T20:02:57.450Z,24.82
2019-02-27T20:05:24.370Z,26.02
2019-02-27T20:07:53.202Z,35.70
2019-02-27T20:10:21.718Z,22.77
2019-02-27T20:12:52.678Z,24.92
2019-02-27T20:15:23.342Z,28.80
2019-02-27T20:17:52.052Z,28.47
2019-02-27T20:20:21.266Z,23.02
2019-02-27T20:22:50.284Z,26.05
2019-02-27T20:25:27.836Z,28.57
2019-02-27T20:27:57.817Z,21.05
2019-02-27T20:30:26.651Z,33.60
2019-02-27T20:32:55.064Z,24.55
2019-02-27T20:35:23.651Z,25.30
2019-02-27T20:37:51.987Z,21.27
2019-02-27T20:40:20.797Z,19.67
2019-02-27T20:42:50.395Z,20.50
2019-02-27T20:45:21.726Z,21.68
2019-02-27T20:47:51.289Z,19.37
2019-02-27T20:50:45.553Z,16.80
2019-02-27T20:53:14.641Z,14.40
2019-02-27T20:55:42.988Z,14.78
2019-02-27T20:58:16.130Z,20.75
2019-02-27T21:00:41.808Z,19.87
2019-02-27T21:03:10.180Z,17.85
2019-02-27T21:05:41.091Z,15.53
2019-02-27T21:08:09.103Z,18.32
2019-02-27T21:10:38.053Z,13.60
2019-02-27T21:13:06.414Z,13.15
2019-02-27T21:15:34.914Z,16.57
2019-02-27T21:18:03.270Z,12.73
2019-02-27T21:20:33.257Z,11.80
2019-02-27T21:23:01.789Z,12.45
2019-02-27T21:25:30.497Z,10.10
2019-02-27T21:27:59.118Z,10.70
2019-02-27T21:30:27.874Z,11.48
2019-02-27T21:32:56.380Z,11.15
2019-02-27T21:35:28.735Z,9.48
2019-02-27T21:37:54.818Z,11.18
2019-02-27T21:40:23.374Z,11.03
2019-02-27T21:42:52.012Z,12.43
2019-02-27T21:45:21.972Z,11.28
2019-02-27T21:47:51.713Z,8.70
2019-02-27T21:50:23.218Z,12.20
2019-02-27T21:52:54.524Z,12.33
2019-02-27T21:55:22.183Z,10.70
2019-02-27T21:57:53.802Z,12.58
2019-02-27T22:00:28.893Z,10.08
2019-02-27T22:02:58.120Z,9.73
2019-02-27T22:05:26.460Z,9.38
2019-02-27T22:07:54.807Z,13.85
2019-02-27T22:10:23.222Z,11.15
2019-02-27T22:12:51.718Z,12.70
2019-02-27T22:15:27.783Z,13.72
2019-02-27T22:17:56.259Z,8.18
2019-02-27T22:20:25.786Z,11.80
2019-02-27T22:22:54.961Z,17.60
2019-02-27T22:25:24.021Z,13.98
2019-02-27T22:27:52.437Z,13.15
2019-02-27T22:30:21.687Z,12.88
2019-02-27T22:32:50.362Z,12.28
2019-02-27T22:35:19.057Z,15.63
2019-02-27T22:37:51.312Z,17.27
2019-02-27T22:40:19.147Z,19.00
2019-02-27T22:42:48.458Z,14.15
2019-02-27T22:45:18.702Z,15.35
2019-02-27T22:47:47.354Z,14.13
2019-02-27T22:50:17.220Z,14.43
2019-02-27T22:52:45.694Z,19.02
2019-02-27T22:55:14.041Z,13.10
2019-02-27T22:57:42.543Z,13.18
2019-02-27T23:00:45.799Z,13.83
2019-02-27T23:03:14.640Z,13.10
2019-02-27T23:05:42.967Z,12.88
2019-02-27T23:08:11.477Z,10.93
2019-02-27T23:10:39.831Z,9.80
2019-02-27T23:13:12.467Z,10.55
2019-02-27T23:15:39.236Z,10.28
2019-02-27T23:18:07.641Z,8.90
2019-02-27T23:20:35.957Z,9.85
2019-02-27T23:23:04.367Z,13.85
2019-02-27T23:25:32.890Z,14.98
2019-02-27T23:28:02.066Z,9.10
2019-02-27T23:30:30.862Z,8.83
2019-02-27T23:33:02.342Z,11.33
2019-02-27T23:35:31.280Z,8.25
2019-02-27T23:38:02.896Z,8.05
2019-02-27T23:40:29.917Z,9.90
2019-02-27T23:43:02.239Z,10.13
2019-02-27T23:45:28.760Z,9.33
2019-02-27T23:47:59.272Z,11.25
2019-02-27T23:50:27.549Z,11.88
2019-02-27T23:52:56.221Z,9.33
2019-02-27T23:55:24.566Z,8.80
2019-02-27T23:57:57.550Z,8.38
